Time;durP1;ratioP1;P1;durP2;ratioP2;P2;SDS_P1;SDS_P2;PMS_P1;PMS_P2;Temp;Humidity;BMP_temperature;BMP_pressure;BME280_temperature;BME280_humidity;BME280_pressure;Samples;Min_cycle;Max_cycle;Signal;HPM_P1;HPM_P2
2023/01/21 00:00:36;;;;;;;59.90;30.20;;;-1.40;99.90;;;;;;5071746;28;20066;-76
2023/01/21 00:03:02;;;;;;;56.23;28.87;;;-1.50;99.90;;;;;;5071485;28;20055;-76
2023/01/21 00:05:28;;;;;;;64.10;30.90;;;-1.50;99.90;;;;;;5071811;28;20116;-75
2023/01/21 00:07:54;;;;;;;63.40;30.73;;;-1.60;99.90;;;;;;5071322;28;20059;-76
2023/01/21 00:10:19;;;;;;;57.57;30.47;;;-1.60;99.90;;;;;;5071066;28;20084;-76
2023/01/21 00:12:45;;;;;;;60.67;29.73;;;-1.60;99.90;;;;;;5070720;28;20043;-76
2023/01/21 00:15:11;;;;;;;54.57;27.80;;;-1.60;99.90;;;;;;5071927;28;20045;-76
2023/01/21 00:17:36;;;;;;;57.30;28.90;;;-1.70;99.90;;;;;;5086501;28;20036;-76
2023/01/21 00:20:03;;;;;;;60.80;30.63;;;-1.70;99.90;;;;;;5071710;28;20525;-77
2023/01/21 00:22:29;;;;;;;56.20;28.63;;;-1.70;99.90;;;;;;5068819;28;20076;-75
2023/01/21 00:24:55;;;;;;;61.97;30.90;;;-1.80;99.90;;;;;;5069230;28;20075;-76
2023/01/21 00:27:20;;;;;;;67.30;30.23;;;-1.80;99.90;;;;;;5070301;28;20047;-75
2023/01/21 00:29:46;;;;;;;59.40;28.80;;;-1.80;99.90;;;;;;5071877;28;20067;-76
2023/01/21 00:32:12;;;;;;;68.00;32.10;;;-1.80;99.90;;;;;;5069599;28;20052;-77
2023/01/21 00:34:37;;;;;;;69.73;34.80;;;-1.80;99.90;;;;;;5071293;28;20072;-75
2023/01/21 00:37:03;;;;;;;70.80;31.60;;;-1.90;99.90;;;;;;5070868;28;20040;-76
2023/01/21 00:39:29;;;;;;;66.73;32.63;;;-1.90;99.90;;;;;;5071288;28;20072;-79
2023/01/21 00:41:54;;;;;;;62.77;30.83;;;-2.00;99.90;;;;;;5070595;28;20047;-75
2023/01/21 00:44:20;;;;;;;61.40;30.17;;;-2.00;99.90;;;;;;5071445;28;20221;-77
2023/01/21 00:46:46;;;;;;;75.07;32.23;;;-2.10;99.90;;;;;;5069056;28;20111;-75
2023/01/21 00:49:11;;;;;;;64.33;31.20;;;-2.10;99.90;;;;;;5071721;28;20123;-75
2023/01/21 00:51:37;;;;;;;60.73;29.97;;;-2.10;99.90;;;;;;5070524;28;20040;-76
2023/01/21 00:54:03;;;;;;;61.77;29.97;;;-2.10;99.90;;;;;;5071066;28;20034;-75
2023/01/21 00:56:28;;;;;;;58.90;28.87;;;-2.00;99.90;;;;;;5071030;28;20064;-75
2023/01/21 00:58:54;;;;;;;59.80;29.73;;;-2.20;99.90;;;;;;5069980;28;20043;-75
2023/01/21 01:01:20;;;;;;;67.23;31.37;;;-2.20;99.90;;;;;;5068615;28;20474;-75
2023/01/21 01:03:47;;;;;;;64.83;30.17;;;-2.20;99.90;;;;;;5069562;28;20048;-75
2023/01/21 01:06:16;;;;;;;65.63;31.37;;;-2.20;99.90;;;;;;5068729;28;20053;-75
2023/01/21 01:08:43;;;;;;;65.30;30.03;;;-2.20;99.90;;;;;;5083463;28;20052;-75
2023/01/21 01:11:10;;;;;;;66.07;29.77;;;-2.30;99.90;;;;;;5069463;28;20111;-75
2023/01/21 01:13:36;;;;;;;63.17;29.37;;;-2.40;99.90;;;;;;5069622;28;20052;-76
2023/01/21 01:16:02;;;;;;;63.50;27.60;;;-2.40;99.90;;;;;;5070307;28;20041;-74
2023/01/21 01:18:29;;;;;;;64.83;30.53;;;-2.40;99.90;;;;;;5070210;28;20477;-75
2023/01/21 01:20:55;;;;;;;66.63;30.20;;;-2.40;99.90;;;;;;5070024;28;20202;-75
2023/01/21 01:23:21;;;;;;;56.67;28.23;;;-2.40;99.90;;;;;;5068196;28;20530;-75
2023/01/21 01:26:20;;;;;;;60.50;28.00;;;-2.40;99.90;;;;;;5069493;28;20174;-75
2023/01/21 01:28:46;;;;;;;55.30;27.23;;;-2.50;99.90;;;;;;5045066;28;20508;-75
2023/01/21 01:31:15;;;;;;;63.83;29.20;;;-2.50;99.90;;;;;;5068831;28;20138;-75
2023/01/21 01:33:42;;;;;;;58.67;27.23;;;-2.50;99.90;;;;;;5070061;28;20375;-75
2023/01/21 01:36:12;;;;;;;58.67;28.07;;;-2.60;99.90;;;;;;5070148;28;20067;-74
2023/01/21 01:38:38;;;;;;;49.30;22.47;;;-2.60;99.90;;;;;;5052432;28;20045;-75
2023/01/21 01:41:04;;;;;;;58.63;28.03;;;-2.60;99.90;;;;;;5069690;28;20048;-76
2023/01/21 01:43:59;;;;;;;53.83;25.60;;;-2.60;99.90;;;;;;5069363;28;20040;-75
2023/01/21 01:46:31;;;;;;;56.43;26.23;;;-2.70;99.90;;;;;;5070161;28;20056;-75
2023/01/21 01:49:11;;;;;;;60.57;28.77;;;-2.70;99.90;;;;;;5068756;28;20495;-75
2023/01/21 01:51:46;;;;;;;49.70;22.48;;;-2.70;99.90;;;;;;5068491;28;20390;-76
2023/01/21 01:54:16;;;;;;;62.40;29.27;;;-2.70;99.90;;;;;;5069250;28;20036;-75
2023/01/21 01:56:45;;;;;;;66.00;30.27;;;-2.70;99.90;;;;;;5067755;28;20044;-78
2023/01/21 01:59:11;;;;;;;69.37;31.60;;;-2.70;99.90;;;;;;5069555;28;20052;-74
2023/01/21 02:01:37;;;;;;;64.80;31.27;;;-2.70;99.90;;;;;;5069764;28;20051;-74
2023/01/21 02:04:07;;;;;;;71.60;32.97;;;-2.70;99.90;;;;;;5068786;28;20037;-74
2023/01/21 02:06:34;;;;;;;68.97;34.07;;;-2.70;99.90;;;;;;5069025;28;20047;-74
2023/01/21 02:08:59;;;;;;;78.57;34.23;;;-2.70;99.90;;;;;;5067846;28;20048;-75
2023/01/21 02:11:25;;;;;;;71.40;31.60;;;-2.70;99.90;;;;;;5068825;28;20052;-75
2023/01/21 02:13:55;;;;;;;76.17;33.23;;;-2.70;99.90;;;;;;5070374;28;20044;-75
2023/01/21 02:16:40;;;;;;;76.17;33.60;;;-2.70;99.90;;;;;;5067788;28;20049;-75
2023/01/21 02:19:16;;;;;;;82.10;34.77;;;-2.70;99.90;;;;;;5068878;28;20040;-75
2023/01/21 02:22:14;;;;;;;73.60;32.80;;;-2.60;99.90;;;;;;5069090;28;20093;-73
2023/01/21 02:25:06;;;;;;;75.40;32.97;;;-2.60;99.90;;;;;;5068047;28;20111;-74
2023/01/21 02:27:53;;;;;;;87.00;36.63;;;-2.60;99.90;;;;;;5058082;28;20133;-75
2023/01/21 02:30:21;;;;;;;81.33;34.80;;;-2.60;99.90;;;;;;5068375;28;20045;-74
2023/01/21 02:33:15;;;;;;;82.90;33.43;;;-2.70;99.90;;;;;;5068940;28;20112;-74
2023/01/21 02:36:17;;;;;;;71.40;32.57;;;-2.70;99.90;;;;;;5068302;28;20062;-74
2023/01/21 02:39:15;;;;;;;74.83;33.10;;;-2.80;99.90;;;;;;5068117;28;20051;-76
2023/01/21 02:42:00;;;;;;;73.47;31.93;;;-2.80;99.90;;;;;;5067490;28;20114;-75
2023/01/21 02:44:47;;;;;;;85.53;34.07;;;-2.70;99.90;;;;;;5067969;28;20075;-74
2023/01/21 02:47:39;;;;;;;93.10;37.27;;;-2.70;99.90;;;;;;5067322;28;20067;-76
2023/01/21 02:50:16;;;;;;;92.88;37.47;;;-2.60;99.90;;;;;;5068803;28;20048;-74
2023/01/21 02:52:42;;;;;;;93.73;38.40;;;-2.50;99.90;;;;;;5067649;28;20067;-75
2023/01/21 02:55:13;;;;;;;99.73;38.50;;;-2.40;99.90;;;;;;5068896;28;20470;-74
2023/01/21 02:57:47;;;;;;;106.00;40.33;;;-2.40;99.90;;;;;;5067999;28;20447;-74
2023/01/21 03:00:35;;;;;;;120.73;41.90;;;-2.10;99.90;;;;;;5065851;28;20389;-74
2023/01/21 03:03:31;;;;;;;106.63;39.77;;;-2.20;99.90;;;;;;5068286;28;20382;-74
2023/01/21 03:06:33;;;;;;;107.27;38.33;;;-2.30;99.90;;;;;;5066155;28;20048;-74
2023/01/21 03:09:04;;;;;;;92.97;38.80;;;-2.30;99.90;;;;;;5053433;28;20509;-75
2023/01/21 03:11:30;;;;;;;71.20;29.05;;;-2.00;99.90;;;;;;5066950;28;20044;-75
2023/01/21 03:17:07;;;;;;;69.65;29.95;;;-2.40;99.90;;;;;;5067949;28;20116;-74
2023/01/21 03:19:45;;;;;;;104.83;39.13;;;-2.40;99.90;;;;;;5067607;28;20511;-76
2023/01/21 03:22:17;;;;;;;98.17;38.20;;;-2.30;99.90;;;;;;5068331;28;20105;-75
2023/01/21 03:24:47;;;;;;;103.43;38.77;;;-2.40;99.90;;;;;;5068060;28;20128;-74
2023/01/21 03:27:17;;;;;;;107.17;39.83;;;-2.40;99.90;;;;;;5066665;28;20386;-75
2023/01/21 03:29:46;;;;;;;80.30;30.50;;;-2.30;99.90;;;;;;5068247;28;20052;-75
2023/01/21 03:32:15;;;;;;;101.17;39.97;;;-2.30;99.90;;;;;;5068396;28;20052;-74
2023/01/21 03:34:44;;;;;;;112.13;41.13;;;-2.20;99.90;;;;;;5068209;28;20394;-74
2023/01/21 03:37:31;;;;;;;100.03;40.13;;;-2.20;99.90;;;;;;5049787;28;20049;-74
2023/01/21 03:40:13;;;;;;;103.10;38.63;;;-2.20;99.90;;;;;;5068283;28;20036;-74
2023/01/21 03:42:41;;;;;;;106.57;39.87;;;-2.20;99.90;;;;;;5067537;28;20056;-74
2023/01/21 03:45:08;;;;;;;109.03;39.93;;;-2.00;99.90;;;;;;5068002;28;20460;-75
2023/01/21 03:47:36;;;;;;;91.40;37.50;;;-2.20;99.90;;;;;;5067647;28;20123;-74
2023/01/21 03:50:40;;;;;;;98.47;40.30;;;-2.10;99.90;;;;;;5067685;28;20049;-77
2023/01/21 03:53:06;;;;;;;110.63;40.73;;;-2.00;99.90;;;;;;5030583;28;20053;-75
2023/01/21 03:55:34;;;;;;;109.10;41.87;;;-2.00;99.90;;;;;;5068243;28;20068;-74
2023/01/21 03:57:59;;;;;;;130.03;46.33;;;-1.90;99.90;;;;;;5065701;28;20047;-74
2023/01/21 04:00:25;;;;;;;132.67;46.97;;;-1.80;99.90;;;;;;5065988;28;20119;-77
2023/01/21 04:02:51;;;;;;;139.83;49.83;;;-1.80;99.90;;;;;;5064674;28;20101;-75
2023/01/21 04:05:16;;;;;;;120.77;45.43;;;-1.90;99.90;;;;;;5067589;28;20041;-74
2023/01/21 04:07:42;;;;;;;121.90;44.63;;;-1.90;99.90;;;;;;5067356;28;20048;-74
2023/01/21 04:10:08;;;;;;;117.13;44.80;;;-1.90;99.90;;;;;;5067951;28;20311;-77
2023/01/21 04:12:34;;;;;;;120.97;44.50;;;-2.00;99.90;;;;;;5068221;28;20075;-75
2023/01/21 04:15:00;;;;;;;144.30;53.67;;;-1.90;99.90;;;;;;5067241;28;20076;-74
2023/01/21 04:17:27;;;;;;;135.43;49.50;;;-1.80;99.90;;;;;;5066955;28;20040;-78
2023/01/21 04:19:53;;;;;;;138.57;52.17;;;-1.80;99.90;;;;;;5067606;28;20036;-76
2023/01/21 04:22:19;;;;;;;137.67;49.63;;;-1.80;99.90;;;;;;5067289;28;20043;-75
2023/01/21 04:24:45;;;;;;;136.13;51.27;;;-1.80;99.90;;;;;;5068180;28;20083;-74
2023/01/21 04:27:11;;;;;;;144.47;51.17;;;-1.70;99.90;;;;;;5067026;28;20486;-76
2023/01/21 04:29:36;;;;;;;145.93;50.77;;;-1.70;99.90;;;;;;5068122;28;20098;-74
2023/01/21 04:32:03;;;;;;;142.73;52.53;;;-1.60;99.90;;;;;;5067322;28;20040;-75
2023/01/21 04:34:28;;;;;;;136.20;50.57;;;-1.60;99.90;;;;;;5066613;28;20036;-77
2023/01/21 04:36:54;;;;;;;133.33;49.83;;;-1.60;99.90;;;;;;5066694;28;20051;-75
2023/01/21 04:39:20;;;;;;;138.77;50.30;;;-1.60;99.90;;;;;;5067610;28;20040;-76
2023/01/21 04:41:45;;;;;;;132.07;50.97;;;-1.60;99.90;;;;;;5070840;28;20707;-75
2023/01/21 04:44:11;;;;;;;131.07;51.30;;;-1.50;99.90;;;;;;5071486;28;20041;-75
2023/01/21 04:46:37;;;;;;;137.77;51.77;;;-1.50;99.90;;;;;;5072972;28;20044;-75
2023/01/21 04:49:02;;;;;;;142.07;51.97;;;-1.50;99.90;;;;;;5070409;28;20056;-76
2023/01/21 04:51:28;;;;;;;138.37;52.93;;;-1.40;99.90;;;;;;5069514;28;20048;-75
2023/01/21 04:53:54;;;;;;;140.00;52.27;;;-1.30;99.90;;;;;;5071258;28;20039;-75
2023/01/21 04:56:19;;;;;;;145.73;52.33;;;-1.30;99.90;;;;;;5071126;28;20068;-75
2023/01/21 04:58:45;;;;;;;139.53;51.57;;;-1.30;99.90;;;;;;5067877;28;20109;-75
2023/01/21 05:01:11;;;;;;;132.90;53.40;;;-1.30;99.90;;;;;;5052489;28;20132;-75
2023/01/21 05:03:36;;;;;;;130.07;51.67;;;-1.30;99.90;;;;;;5070903;28;20123;-75
2023/01/21 05:06:02;;;;;;;137.60;52.87;;;-1.30;99.90;;;;;;5070997;28;20474;-75
2023/01/21 05:08:28;;;;;;;133.53;51.40;;;-1.20;99.90;;;;;;5070539;28;20132;-74
2023/01/21 05:10:53;;;;;;;130.73;47.90;;;-1.30;99.90;;;;;;5052081;28;20060;-75
2023/01/21 05:13:19;;;;;;;123.90;48.13;;;-1.20;99.90;;;;;;5070021;28;20036;-75
2023/01/21 05:15:45;;;;;;;114.37;47.97;;;-1.20;99.90;;;;;;5069783;28;20036;-75
2023/01/21 05:18:10;;;;;;;127.17;48.23;;;-1.30;99.90;;;;;;5069894;28;20040;-75
2023/01/21 05:20:36;;;;;;;120.27;47.10;;;-1.20;99.90;;;;;;5071270;28;20052;-76
2023/01/21 05:23:02;;;;;;;108.70;46.30;;;-1.30;99.90;;;;;;5071065;28;20048;-75
2023/01/21 05:25:27;;;;;;;117.23;47.50;;;-1.20;99.90;;;;;;5070604;28;20494;-75
2023/01/21 05:27:54;;;;;;;115.33;45.70;;;-1.30;99.90;;;;;;5070090;28;20047;-76
2023/01/21 05:30:20;;;;;;;113.50;45.77;;;-1.20;99.90;;;;;;5069917;28;20068;-74
2023/01/21 05:32:52;;;;;;;112.70;44.73;;;-1.20;99.90;;;;;;5070415;28;20120;-75
2023/01/21 05:35:22;;;;;;;104.80;45.37;;;-1.20;99.90;;;;;;5069357;28;20040;-76
2023/01/21 05:37:48;;;;;;;112.03;45.13;;;-1.30;99.90;;;;;;5067483;28;20048;-75
2023/01/21 05:40:15;;;;;;;110.13;43.57;;;-1.40;99.90;;;;;;5070383;28;20056;-75
2023/01/21 05:42:42;;;;;;;110.07;43.83;;;-1.40;99.90;;;;;;5084611;28;20073;-75
2023/01/21 05:45:10;;;;;;;109.97;43.70;;;-1.40;99.90;;;;;;5070828;28;20112;-75
2023/01/21 05:47:36;;;;;;;102.47;44.47;;;-1.40;99.90;;;;;;5069118;28;20036;-74
2023/01/21 05:50:02;;;;;;;107.23;43.63;;;-1.40;99.90;;;;;;5067395;28;20052;-76
2023/01/21 05:52:28;;;;;;;113.83;45.63;;;-1.40;99.90;;;;;;5064616;28;20043;-76
2023/01/21 05:54:53;;;;;;;116.17;47.83;;;-1.40;99.90;;;;;;5050208;28;20056;-75
2023/01/21 05:57:19;;;;;;;111.17;45.13;;;-1.40;99.90;;;;;;5066163;28;20352;-74
2023/01/21 05:59:45;;;;;;;118.10;46.30;;;-1.50;99.90;;;;;;5068214;28;20123;-75
2023/01/21 06:02:10;;;;;;;114.90;45.53;;;-1.50;99.90;;;;;;5068637;28;20066;-75
2023/01/21 06:04:36;;;;;;;100.90;43.37;;;-1.60;99.90;;;;;;5071653;28;20041;-77
2023/01/21 06:07:02;;;;;;;108.77;44.63;;;-1.60;99.90;;;;;;5068851;28;20060;-75
2023/01/21 06:09:28;;;;;;;112.03;46.37;;;-1.70;99.90;;;;;;5068200;28;20040;-75
2023/01/21 06:11:54;;;;;;;99.90;42.97;;;-1.70;99.90;;;;;;5069194;28;20066;-75
2023/01/21 06:14:20;;;;;;;101.30;43.07;;;-1.80;99.90;;;;;;5069403;28;20046;-76
2023/01/21 06:16:45;;;;;;;88.53;39.40;;;-1.80;99.90;;;;;;5068543;28;20048;-74
2023/01/21 06:19:11;;;;;;;105.23;42.90;;;-1.90;99.90;;;;;;5069595;28;20041;-75
2023/01/21 06:21:37;;;;;;;100.77;42.50;;;-1.90;99.90;;;;;;5066312;28;20518;-75
2023/01/21 06:24:02;;;;;;;89.70;40.67;;;-2.00;99.90;;;;;;5066341;28;20048;-75
2023/01/21 06:26:28;;;;;;;108.23;42.50;;;-2.10;99.90;;;;;;5065993;28;20135;-75
2023/01/21 06:28:56;;;;;;;95.63;41.27;;;-2.10;99.90;;;;;;5066137;28;20044;-75
2023/01/21 06:31:23;;;;;;;98.27;40.73;;;-2.10;99.90;;;;;;5068755;28;20045;-75
2023/01/21 06:33:48;;;;;;;102.40;40.00;;;-2.10;99.90;;;;;;5068311;28;20060;-74
2023/01/21 06:36:14;;;;;;;89.70;38.80;;;-2.10;99.90;;;;;;5067977;28;20429;-79
2023/01/21 06:38:40;;;;;;;88.00;38.10;;;-2.20;99.90;;;;;;5069202;28;20071;-75
2023/01/21 06:41:05;;;;;;;88.70;38.40;;;-2.30;99.90;;;;;;5068035;28;20084;-74
2023/01/21 06:43:31;;;;;;;84.60;37.53;;;-2.40;99.90;;;;;;5072534;28;20055;-79
2023/01/21 06:45:57;;;;;;;83.00;38.03;;;-2.40;99.90;;;;;;5069045;28;20040;-73
2023/01/21 06:48:22;;;;;;;91.30;39.10;;;-2.50;99.90;;;;;;5068017;28;20055;-75
2023/01/21 06:50:48;;;;;;;91.33;39.30;;;-2.50;99.90;;;;;;5052043;28;20048;-80
2023/01/21 06:53:14;;;;;;;101.03;42.10;;;-2.50;99.90;;;;;;5068885;28;20377;-75
2023/01/21 06:55:39;;;;;;;104.20;42.63;;;-2.40;99.90;;;;;;5050898;28;20064;-75
2023/01/21 06:58:05;;;;;;;108.53;42.30;;;-2.40;99.90;;;;;;5066743;28;20052;-77
2023/01/21 07:00:31;;;;;;;101.37;42.40;;;-2.40;99.90;;;;;;5068920;28;20657;-74
2023/01/21 07:02:58;;;;;;;110.10;43.93;;;-2.40;99.90;;;;;;5068624;28;20066;-74
2023/01/21 07:05:24;;;;;;;106.63;45.40;;;-2.40;99.90;;;;;;5065258;28;20421;-75
2023/01/21 07:07:53;;;;;;;114.40;45.30;;;-2.40;99.90;;;;;;5065531;28;20060;-78
2023/01/21 07:10:18;;;;;;;127.77;47.97;;;-2.40;99.90;;;;;;5032785;28;20122;-75
2023/01/21 07:12:44;;;;;;;123.13;48.20;;;-1.90;99.90;;;;;;5067838;28;20052;-75
2023/01/21 07:15:10;;;;;;;132.33;49.77;;;-2.20;99.90;;;;;;5064269;28;20048;-76
2023/01/21 07:17:35;;;;;;;124.87;50.00;;;-2.30;99.90;;;;;;5061633;28;20035;-76
2023/01/21 07:20:03;;;;;;;130.33;48.60;;;-2.40;99.90;;;;;;5062361;28;20075;-74
2023/01/21 07:22:29;;;;;;;119.50;45.83;;;-2.40;99.90;;;;;;5061112;28;20390;-75
2023/01/21 07:24:55;;;;;;;132.73;51.17;;;-2.50;99.90;;;;;;5063001;28;20053;-76
2023/01/21 07:27:20;;;;;;;137.27;50.93;;;-2.50;99.90;;;;;;5063529;28;20040;-77
2023/01/21 07:29:46;;;;;;;133.07;50.40;;;-2.50;99.90;;;;;;5063517;28;20112;-78
2023/01/21 07:32:12;;;;;;;135.97;52.47;;;-2.50;99.90;;;;;;5062668;28;20037;-75
2023/01/21 07:34:37;;;;;;;132.97;51.87;;;-2.50;99.90;;;;;;5064243;28;20060;-75
2023/01/21 07:37:03;;;;;;;140.93;53.80;;;-2.50;99.90;;;;;;5063333;28;20048;-75
2023/01/21 07:39:29;;;;;;;139.50;52.73;;;-2.50;99.90;;;;;;5063948;28;20064;-78
2023/01/21 07:41:54;;;;;;;136.83;52.73;;;-2.40;99.90;;;;;;5062396;28;20049;-75
2023/01/21 07:44:20;;;;;;;135.30;50.70;;;-2.50;99.90;;;;;;5063705;28;20040;-77
2023/01/21 07:46:46;;;;;;;122.53;48.17;;;-2.50;99.90;;;;;;5063455;28;20040;-74
2023/01/21 07:49:16;;;;;;;130.53;49.97;;;-2.60;99.90;;;;;;5064424;28;20051;-74
2023/01/21 07:51:45;;;;;;;143.10;51.53;;;-2.50;99.90;;;;;;5063907;28;20138;-77
2023/01/21 07:54:11;;;;;;;138.67;51.83;;;-2.50;99.90;;;;;;5063697;28;20040;-74
2023/01/21 07:56:37;;;;;;;119.13;49.90;;;-2.50;99.90;;;;;;5061904;28;20120;-76
2023/01/21 07:59:02;;;;;;;127.73;49.17;;;-2.50;99.90;;;;;;5079053;28;20070;-75
2023/01/21 08:01:30;;;;;;;116.03;47.93;;;-2.50;99.90;;;;;;5064534;28;20045;-77
2023/01/21 08:03:59;;;;;;;121.47;46.83;;;-2.60;99.90;;;;;;5064024;28;20044;-77
2023/01/21 08:06:25;;;;;;;121.77;48.60;;;-2.10;99.90;;;;;;5062695;28;20040;-73
2023/01/21 08:08:51;;;;;;;115.60;45.40;;;-2.50;99.90;;;;;;5062483;28;20053;-76
2023/01/21 08:11:17;;;;;;;100.23;42.13;;;-2.50;99.90;;;;;;5062127;28;20048;-75
2023/01/21 08:13:43;;;;;;;104.47;43.97;;;-2.30;99.90;;;;;;5063319;28;20478;-77
2023/01/21 08:16:10;;;;;;;95.43;42.47;;;-2.00;99.90;;;;;;5066455;28;20624;-75
2023/01/21 08:18:36;;;;;;;100.97;43.87;;;-1.90;99.90;;;;;;5067289;28;20398;-74
2023/01/21 08:21:02;;;;;;;107.80;45.93;;;-1.80;99.90;;;;;;5067503;28;20052;-75
2023/01/21 08:23:28;;;;;;;114.97;47.70;;;-1.70;99.90;;;;;;5067616;28;20109;-75
2023/01/21 08:25:54;;;;;;;113.73;47.03;;;-1.60;99.90;;;;;;5066873;28;20492;-76
2023/01/21 08:28:20;;;;;;;110.57;48.67;;;-1.50;99.90;;;;;;5065037;28;20044;-75
2023/01/21 08:30:46;;;;;;;122.17;50.17;;;-1.50;99.90;;;;;;5067484;28;20072;-74
2023/01/21 08:33:12;;;;;;;121.40;50.70;;;-1.10;99.90;;;;;;5066556;28;20332;-76
2023/01/21 08:35:38;;;;;;;114.87;51.03;;;-0.70;99.90;;;;;;5066251;28;20075;-75
2023/01/21 08:38:03;;;;;;;109.63;50.60;;;-0.50;99.90;;;;;;5064064;28;20372;-75
2023/01/21 08:40:29;;;;;;;109.27;50.50;;;-0.50;99.90;;;;;;5063889;28;20036;-75
2023/01/21 08:42:59;;;;;;;100.30;48.57;;;-0.40;99.90;;;;;;5065008;28;20257;-74
2023/01/21 08:45:25;;;;;;;99.77;46.67;;;-0.40;99.90;;;;;;5067170;28;20339;-75
2023/01/21 08:47:51;;;;;;;102.17;45.90;;;-0.30;99.90;;;;;;5066479;28;20514;-74
2023/01/21 08:50:17;;;;;;;102.77;47.93;;;-0.30;99.90;;;;;;5064999;28;20056;-75
2023/01/21 08:52:53;;;;;;;91.50;44.50;;;-0.30;99.90;;;;;;5066581;28;20484;-76
2023/01/21 08:55:19;;;;;;;96.07;45.10;;;-0.20;99.90;;;;;;5065969;28;20040;-74
2023/01/21 08:57:45;;;;;;;92.83;43.70;;;-0.30;99.90;;;;;;5065621;28;20076;-75
2023/01/21 09:00:13;;;;;;;90.10;42.87;;;-0.30;99.90;;;;;;5067811;28;20075;-76
2023/01/21 09:02:38;;;;;;;93.60;46.17;;;-0.30;99.90;;;;;;5066211;28;20044;-75
2023/01/21 09:05:05;;;;;;;89.17;43.63;;;0.00;99.90;;;;;;5067057;28;20045;-75
2023/01/21 09:07:30;;;;;;;98.40;45.20;;;0.40;99.90;;;;;;5067306;28;20052;-77
2023/01/21 09:09:56;;;;;;;91.10;45.57;;;0.70;99.90;;;;;;5067496;28;20086;-75
2023/01/21 09:12:22;;;;;;;92.67;43.73;;;0.90;99.90;;;;;;5067475;28;20693;-75
2023/01/21 09:14:47;;;;;;;81.90;43.67;;;0.70;99.90;;;;;;5067129;28;20043;-76
2023/01/21 09:17:13;;;;;;;76.90;40.03;;;0.70;99.90;;;;;;5066575;28;20557;-74
2023/01/21 09:19:39;;;;;;;69.73;38.23;;;0.50;99.90;;;;;;5066133;28;20056;-78
2023/01/21 09:22:05;;;;;;;70.57;38.53;;;0.40;99.90;;;;;;5067693;28;20041;-75
2023/01/21 09:24:31;;;;;;;71.97;39.00;;;0.30;99.90;;;;;;5066868;28;20044;-79
2023/01/21 09:26:57;;;;;;;74.93;40.63;;;0.30;99.90;;;;;;5065688;28;20048;-77
2023/01/21 09:29:23;;;;;;;72.00;39.53;;;0.30;99.90;;;;;;5066225;28;20052;-80
2023/01/21 09:31:49;;;;;;;83.87;40.23;;;0.30;99.90;;;;;;5066358;28;20041;-74
2023/01/21 09:34:14;;;;;;;76.23;39.83;;;0.20;99.90;;;;;;5065228;28;20080;-74
2023/01/21 09:36:40;;;;;;;72.87;39.00;;;0.10;99.90;;;;;;5065334;28;20102;-76
2023/01/21 09:39:06;;;;;;;71.17;39.80;;;0.30;99.90;;;;;;5065809;28;20052;-76
2023/01/21 09:41:41;;;;;;;78.57;41.30;;;0.30;99.90;;;;;;5064823;28;20047;-76
2023/01/21 09:44:22;;;;;;;73.07;40.20;;;0.10;99.90;;;;;;5064586;28;20040;-75
2023/01/21 09:47:19;;;;;;;70.23;37.83;;;0.10;99.90;;;;;;5067671;28;20378;-76
2023/01/21 09:49:48;;;;;;;77.70;39.77;;;0.10;99.90;;;;;;5063847;28;20772;-75
2023/01/21 09:52:29;;;;;;;77.87;38.93;;;0.30;99.90;;;;;;5066808;28;20099;-74
2023/01/21 09:54:56;;;;;;;73.20;39.45;;;0.40;99.90;;;;;;5066546;28;20064;-78
2023/01/21 09:57:27;;;;;;;77.50;39.07;;;0.60;99.90;;;;;;5066223;28;20557;-75
2023/01/21 10:00:07;;;;;;;80.80;42.63;;;0.90;99.90;;;;;;5065387;28;20046;-78
2023/01/21 10:02:56;;;;;;;86.90;42.97;;;1.40;99.90;;;;;;5065462;28;20127;-75
2023/01/21 10:05:46;;;;;;;83.67;41.97;;;1.70;99.90;;;;;;5065702;28;20059;-76
2023/01/21 10:08:45;;;;;;;83.70;43.43;;;1.80;99.90;;;;;;5062596;28;20060;-79
2023/01/21 10:11:34;;;;;;;75.30;39.40;;;1.80;99.90;;;;;;5063237;28;20056;-78
2023/01/21 10:14:15;;;;;;;63.93;36.23;;;1.80;99.90;;;;;;5065341;28;20421;-75
2023/01/21 10:16:44;;;;;;;60.83;35.00;;;1.90;99.90;;;;;;5064481;28;21070;-75
2023/01/21 10:19:20;;;;;;;64.47;35.67;;;2.40;99.90;;;;;;5064818;28;20287;-76
2023/01/21 10:22:01;;;;;;;64.50;36.30;;;2.40;99.90;;;;;;5063817;28;20047;-75
2023/01/21 10:24:34;;;;;;;60.53;36.25;;;3.00;99.90;;;;;;5064846;28;20041;-76
2023/01/21 10:26:59;;;;;;;64.70;37.63;;;4.00;99.90;;;;;;5066173;28;20059;-75
2023/01/21 10:29:26;;;;;;;58.17;34.47;;;3.50;99.90;;;;;;5066453;28;20348;-75
2023/01/21 10:32:06;;;;;;;75.73;38.87;;;3.60;99.90;;;;;;5062306;28;20055;-76
2023/01/21 10:34:38;;;;;;;65.53;35.93;;;4.10;99.90;;;;;;5061415;28;20088;-77
2023/01/21 10:37:16;;;;;;;59.27;35.03;;;4.10;99.90;;;;;;5061973;28;20097;-76
2023/01/21 10:39:49;;;;;;;52.27;33.53;;;4.20;99.90;;;;;;5064068;28;20040;-77
2023/01/21 10:42:36;;;;;;;51.07;32.10;;;4.60;99.90;;;;;;5065726;28;20302;-76
2023/01/21 10:45:20;;;;;;;47.27;28.83;;;5.20;99.90;;;;;;5064170;28;20497;-75
2023/01/21 10:48:11;;;;;;;39.67;25.77;;;5.30;99.90;;;;;;5069371;28;20040;-76
2023/01/21 10:50:44;;;;;;;36.45;24.05;;;5.30;99.90;;;;;;5067561;28;20176;-76
2023/01/21 10:53:17;;;;;;;34.17;23.83;;;5.90;99.90;;;;;;5067077;28;20048;-78
2023/01/21 10:55:48;;;;;;;38.20;25.40;;;6.20;99.90;;;;;;5068624;28;20379;-77
2023/01/21 10:58:28;;;;;;;34.83;24.85;;;6.20;99.90;;;;;;5067218;28;20060;-77
2023/01/21 11:00:56;;;;;;;31.07;24.00;;;6.40;99.90;;;;;;5068521;28;20041;-77
2023/01/21 11:03:29;;;;;;;28.83;23.23;;;6.70;99.90;;;;;;5067909;28;20599;-76
2023/01/21 11:05:54;;;;;;;29.60;22.37;;;7.10;99.90;;;;;;5068241;28;20086;-77
2023/01/21 11:08:22;;;;;;;29.87;24.60;;;6.80;99.90;;;;;;5068241;28;20056;-76
2023/01/21 11:10:54;;;;;;;31.63;24.23;;;6.30;99.90;;;;;;5067063;28;20045;-76
2023/01/21 11:13:20;;;;;;;29.73;22.47;;;6.30;99.90;;;;;;5068404;28;20049;-77
2023/01/21 11:15:53;;;;;;;27.60;21.97;;;6.60;99.90;;;;;;5068398;28;20490;-79
2023/01/21 11:18:35;;;;;;;27.03;21.03;;;7.20;99.90;;;;;;5066394;28;20119;-77
2023/01/21 11:21:23;;;;;;;28.47;23.33;;;8.10;99.90;;;;;;5065006;28;20041;-76
2023/01/21 11:23:54;;;;;;;30.10;25.20;;;8.50;99.90;;;;;;5067009;28;20093;-76
2023/01/21 11:26:32;;;;;;;29.98;26.92;;;9.10;99.90;;;;;;5066949;28;20044;-77
2023/01/21 11:29:18;;;;;;;25.70;22.90;;;9.40;99.90;;;;;;5067818;28;20051;-76
2023/01/21 11:31:59;;;;;;;30.00;25.67;;;10.30;99.90;;;;;;5068473;28;20117;-77
2023/01/21 11:34:24;;;;;;;23.52;21.17;;;10.10;99.90;;;;;;5068780;28;20116;-76
2023/01/21 11:36:53;;;;;;;33.27;28.57;;;10.30;99.90;;;;;;5068069;28;20131;-77
2023/01/21 11:39:22;;;;;;;26.40;23.87;;;9.70;99.90;;;;;;5068714;28;20098;-77
2023/01/21 11:41:53;;;;;;;27.33;24.63;;;9.40;99.90;;;;;;5066399;28;20054;-76
2023/01/21 11:44:20;;;;;;;27.70;24.80;;;9.40;99.90;;;;;;5067945;28;20044;-77
2023/01/21 11:46:46;;;;;;;21.47;19.23;;;8.90;99.90;;;;;;5067300;28;20090;-76
2023/01/21 11:49:24;;;;;;;25.53;22.83;;;8.40;99.90;;;;;;5067603;28;20360;-78
2023/01/21 11:52:04;;;;;;;27.97;24.00;;;7.90;99.90;;;;;;5068477;28;20120;-75
2023/01/21 11:54:38;;;;;;;26.37;23.57;;;7.30;99.90;;;;;;5071161;28;20052;-76
2023/01/21 11:57:05;;;;;;;28.60;25.60;;;7.70;99.90;;;;;;5071264;28;20452;-76
2023/01/21 11:59:34;;;;;;;26.07;23.37;;;8.30;99.90;;;;;;5070487;28;20513;-76
2023/01/21 12:02:24;;;;;;;24.27;21.63;;;8.10;99.90;;;;;;5071095;28;20454;-75
2023/01/21 12:04:58;;;;;;;15.50;12.60;;;8.60;99.90;;;;;;5072028;28;20056;-75
2023/01/21 12:07:28;;;;;;;14.63;12.63;;;8.50;99.90;;;;;;5071443;28;20378;-75
2023/01/21 12:10:02;;;;;;;13.53;12.13;;;8.20;99.90;;;;;;5071836;28;20403;-75
2023/01/21 12:12:43;;;;;;;12.50;10.20;;;7.50;99.90;;;;;;5070400;28;20049;-75
2023/01/21 12:15:36;;;;;;;13.23;10.88;;;6.90;99.90;;;;;;5072401;28;20036;-76
2023/01/21 12:18:41;;;;;;;14.03;10.00;;;7.00;99.90;;;;;;5069764;28;20402;-74
2023/01/21 12:21:24;;;;;;;10.00;7.97;;;7.00;99.90;;;;;;5071404;28;20047;-75
2023/01/21 12:24:13;;;;;;;11.20;8.53;;;7.10;99.90;;;;;;5069972;28;20047;-77
2023/01/21 12:26:54;;;;;;;9.40;8.10;;;7.00;99.90;;;;;;5070812;28;20048;-76
2023/01/21 12:29:26;;;;;;;;;;;6.90;99.90;;;;;;5071018;28;20067;-75
2023/01/21 12:31:55;;;;;;;;;;;6.30;99.90;;;;;;5071698;28;19927;-75
2023/01/21 12:34:30;;;;;;;9.70;7.37;;;6.10;99.90;;;;;;5071536;28;19994;-76
2023/01/21 12:37:02;;;;;;;10.50;7.87;;;5.90;99.90;;;;;;5070598;28;20037;-75
2023/01/21 12:39:31;;;;;;;11.00;7.93;;;5.60;99.90;;;;;;5070855;28;20116;-75
2023/01/21 12:42:19;;;;;;;11.80;9.17;;;5.40;99.90;;;;;;5070867;28;20432;-75
2023/01/21 12:44:50;;;;;;;10.90;8.37;;;5.40;99.90;;;;;;5071220;28;20044;-76